sensor_id;sensor_type;location;lat;lon;timestamp;pressure;altitude;pressure_sealevel;temperature;humidity
23363;BME280;11853;48.080;11.960;2023-05-03T00:01:29;95455.69;;;10.00;100.00
23363;BME280;11853;48.080;11.960;2023-05-03T00:03:55;95457.25;;;10.03;100.00
23363;BME280;11853;48.080;11.960;2023-05-03T00:06:21;95453.75;;;10.02;100.00
23363;BME280;11853;48.080;11.960;2023-05-03T00:08:47;95464.47;;;10.01;100.00
23363;BME280;11853;48.080;11.960;2023-05-03T00:11:12;95459.34;;;9.99;100.00
23363;BME280;11853;48.080;11.960;2023-05-03T00:13:38;95459.44;;;9.98;100.00
23363;BME280;11853;48.080;11.960;2023-05-03T00:16:04;95462.81;;;10.00;100.00
23363;BME280;11853;48.080;11.960;2023-05-03T00:18:30;95462.94;;;9.98;100.00
23363;BME280;11853;48.080;11.960;2023-05-03T00:20:57;95475.63;;;9.95;100.00
23363;BME280;11853;48.080;11.960;2023-05-03T00:23:24;95461.81;;;9.91;100.00
23363;BME280;11853;48.080;11.960;2023-05-03T00:25:56;95459.44;;;9.88;100.00
23363;BME280;11853;48.080;11.960;2023-05-03T00:28:22;95460.53;;;9.85;100.00
23363;BME280;11853;48.080;11.960;2023-05-03T00:30:49;95464.16;;;9.84;100.00
23363;BME280;11853;48.080;11.960;2023-05-03T00:33:15;95465.84;;;9.85;100.00
23363;BME280;11853;48.080;11.960;2023-05-03T00:35:44;95460.22;;;9.79;100.00
23363;BME280;11853;48.080;11.960;2023-05-03T00:38:10;95448.47;;;9.72;100.00
23363;BME280;11853;48.080;11.960;2023-05-03T00:40:38;95446.81;;;9.70;100.00
23363;BME280;11853;48.080;11.960;2023-05-03T00:43:04;95451.28;;;9.70;100.00
23363;BME280;11853;48.080;11.960;2023-05-03T00:45:32;95448.63;;;9.70;100.00
23363;BME280;11853;48.080;11.960;2023-05-03T00:47:59;95446.81;;;9.70;100.00
23363;BME280;11853;48.080;11.960;2023-05-03T00:50:25;95453.50;;;9.75;100.00
23363;BME280;11853;48.080;11.960;2023-05-03T00:52:51;95446.53;;;9.74;100.00
23363;BME280;11853;48.080;11.960;2023-05-03T00:55:17;95442.63;;;9.78;100.00
23363;BME280;11853;48.080;11.960;2023-05-03T00:57:43;95449.63;;;9.79;100.00
23363;BME280;11853;48.080;11.960;2023-05-03T01:00:09;95450.31;;;9.81;100.00
23363;BME280;11853;48.080;11.960;2023-05-03T01:02:35;95446.84;;;9.80;100.00
23363;BME280;11853;48.080;11.960;2023-05-03T01:05:01;95455.22;;;9.85;100.00
23363;BME280;11853;48.080;11.960;2023-05-03T01:07:44;95452.75;;;9.93;100.00
23363;BME280;11853;48.080;11.960;2023-05-03T01:13:17;95454.59;;;10.03;100.00
23363;BME280;11853;48.080;11.960;2023-05-03T01:16:00;95451.94;;;10.03;100.00
23363;BME280;11853;48.080;11.960;2023-05-03T01:18:36;95436.03;;;10.03;100.00
23363;BME280;11853;48.080;11.960;2023-05-03T01:21:04;95448.72;;;9.99;100.00
23363;BME280;11853;48.080;11.960;2023-05-03T01:23:55;95432.94;;;9.98;100.00
23363;BME280;11853;48.080;11.960;2023-05-03T01:26:23;95446.91;;;10.00;100.00
23363;BME280;11853;48.080;11.960;2023-05-03T01:28:49;95437.44;;;10.07;100.00
23363;BME280;11853;48.080;11.960;2023-05-03T01:31:38;95441.50;;;10.11;100.00
23363;BME280;11853;48.080;11.960;2023-05-03T01:34:43;95443.88;;;10.14;100.00
23363;BME280;11853;48.080;11.960;2023-05-03T01:37:14;95445.56;;;10.15;100.00
23363;BME280;11853;48.080;11.960;2023-05-03T01:39:50;95442.06;;;10.14;100.00
23363;BME280;11853;48.080;11.960;2023-05-03T01:42:19;95439.81;;;10.10;100.00
23363;BME280;11853;48.080;11.960;2023-05-03T01:44:46;95435.50;;;10.09;100.00
23363;BME280;11853;48.080;11.960;2023-05-03T01:47:12;95439.13;;;10.08;100.00
23363;BME280;11853;48.080;11.960;2023-05-03T01:49:39;95434.22;;;10.03;100.00
23363;BME280;11853;48.080;11.960;2023-05-03T01:52:05;95437.16;;;10.00;100.00
23363;BME280;11853;48.080;11.960;2023-05-03T01:54:31;95437.97;;;10.01;100.00
23363;BME280;11853;48.080;11.960;2023-05-03T01:56:57;95438.69;;;10.03;100.00
23363;BME280;11853;48.080;11.960;2023-05-03T01:59:22;95447.47;;;10.03;100.00
23363;BME280;11853;48.080;11.960;2023-05-03T02:01:48;95436.88;;;10.03;100.00
23363;BME280;11853;48.080;11.960;2023-05-03T02:04:13;95436.88;;;10.03;100.00
23363;BME280;11853;48.080;11.960;2023-05-03T02:06:39;95435.47;;;9.99;100.00
23363;BME280;11853;48.080;11.960;2023-05-03T02:09:05;95439.34;;;9.95;100.00
23363;BME280;11853;48.080;11.960;2023-05-03T02:11:31;95444.66;;;9.95;100.00
23363;BME280;11853;48.080;11.960;2023-05-03T02:13:56;95448.28;;;9.94;100.00
23363;BME280;11853;48.080;11.960;2023-05-03T02:16:22;95444.66;;;9.95;100.00
23363;BME280;11853;48.080;11.960;2023-05-03T02:18:48;95443.00;;;9.94;100.00
23363;BME280;11853;48.080;11.960;2023-05-03T02:21:13;95453.31;;;9.97;100.00
23363;BME280;11853;48.080;11.960;2023-05-03T02:23:39;95449.69;;;9.98;100.00
23363;BME280;11853;48.080;11.960;2023-05-03T02:26:06;95448.03;;;9.97;100.00
23363;BME280;11853;48.080;11.960;2023-05-03T02:28:32;95444.81;;;9.93;100.00
23363;BME280;11853;48.080;11.960;2023-05-03T02:30:58;95451.94;;;9.93;100.00
23363;BME280;11853;48.080;11.960;2023-05-03T02:33:24;95444.22;;;9.90;100.00
23363;BME280;11853;48.080;11.960;2023-05-03T02:35:50;95449.78;;;9.87;100.00
23363;BME280;11853;48.080;11.960;2023-05-03T02:38:16;95447.56;;;9.92;100.00
23363;BME280;11853;48.080;11.960;2023-05-03T02:40:41;95446.00;;;9.80;100.00
23363;BME280;11853;48.080;11.960;2023-05-03T02:43:07;95457.00;;;9.75;100.00
23363;BME280;11853;48.080;11.960;2023-05-03T02:45:34;95460.34;;;9.77;100.00
23363;BME280;11853;48.080;11.960;2023-05-03T02:48:01;95451.56;;;9.77;100.00
23363;BME280;11853;48.080;11.960;2023-05-03T02:50:26;95457.69;;;9.77;100.00
23363;BME280;11853;48.080;11.960;2023-05-03T02:52:52;95447.63;;;9.71;100.00
23363;BME280;11853;48.080;11.960;2023-05-03T02:55:18;95444.16;;;9.70;100.00
23363;BME280;11853;48.080;11.960;2023-05-03T02:57:43;95453.78;;;9.72;100.00
23363;BME280;11853;48.080;11.960;2023-05-03T03:00:10;95455.69;;;9.69;100.00
23363;BME280;11853;48.080;11.960;2023-05-03T03:02:39;95449.56;;;9.69;100.00
23363;BME280;11853;48.080;11.960;2023-05-03T03:05:05;95451.13;;;9.72;100.00
23363;BME280;11853;48.080;11.960;2023-05-03T03:07:33;95450.00;;;9.64;100.00
23363;BME280;11853;48.080;11.960;2023-05-03T03:09:58;95447.56;;;9.61;100.00
23363;BME280;11853;48.080;11.960;2023-05-03T03:12:25;95454.56;;;9.62;100.00
23363;BME280;11853;48.080;11.960;2023-05-03T03:14:53;95454.31;;;9.65;100.00
23363;BME280;11853;48.080;11.960;2023-05-03T03:17:37;95459.34;;;9.68;100.00
23363;BME280;11853;48.080;11.960;2023-05-03T03:20:07;95450.56;;;9.68;100.00
23363;BME280;11853;48.080;11.960;2023-05-03T03:25:40;95451.94;;;9.72;100.00
23363;BME280;11853;48.080;11.960;2023-05-03T03:28:06;95447.06;;;9.67;100.00
23363;BME280;11853;48.080;11.960;2023-05-03T03:30:32;95449.53;;;9.59;100.00
23363;BME280;11853;48.080;11.960;2023-05-03T03:32:58;95453.13;;;9.58;100.00
23363;BME280;11853;48.080;11.960;2023-05-03T03:35:23;95458.16;;;9.61;100.00
23363;BME280;11853;48.080;11.960;2023-05-03T03:37:50;95458.06;;;9.63;100.00
23363;BME280;11853;48.080;11.960;2023-05-03T03:40:15;95454.41;;;9.64;100.00
23363;BME280;11853;48.080;11.960;2023-05-03T03:42:41;95453.19;;;9.68;100.00
23363;BME280;11853;48.080;11.960;2023-05-03T03:45:07;95457.41;;;9.50;100.00
23363;BME280;11853;48.080;11.960;2023-05-03T03:47:33;95453.22;;;9.47;100.00
23363;BME280;11853;48.080;11.960;2023-05-03T03:49:59;95457.03;;;9.54;100.00
23363;BME280;11853;48.080;11.960;2023-05-03T03:52:26;95449.81;;;9.56;100.00
23363;BME280;11853;48.080;11.960;2023-05-03T03:54:52;95459.31;;;9.59;100.00
23363;BME280;11853;48.080;11.960;2023-05-03T03:57:18;95450.50;;;9.58;100.00
23363;BME280;11853;48.080;11.960;2023-05-03T03:59:43;95454.00;;;9.59;100.00
23363;BME280;11853;48.080;11.960;2023-05-03T04:02:09;95451.91;;;9.62;100.00
23363;BME280;11853;48.080;11.960;2023-05-03T04:04:35;95458.09;;;9.73;100.00
23363;BME280;11853;48.080;11.960;2023-05-03T04:07:01;95446.53;;;9.74;100.00
23363;BME280;11853;48.080;11.960;2023-05-03T04:09:27;95451.03;;;9.83;100.00
23363;BME280;11853;48.080;11.960;2023-05-03T04:11:52;95464.16;;;9.84;100.00
23363;BME280;11853;48.080;11.960;2023-05-03T04:14:18;95467.75;;;9.83;100.00
23363;BME280;11853;48.080;11.960;2023-05-03T04:16:44;95457.16;;;9.83;100.00
23363;BME280;11853;48.080;11.960;2023-05-03T04:19:10;95463.31;;;9.84;100.00
23363;BME280;11853;48.080;11.960;2023-05-03T04:21:36;95466.22;;;9.81;100.00
23363;BME280;11853;48.080;11.960;2023-05-03T04:24:03;95470.84;;;9.79;100.00
23363;BME280;11853;48.080;11.960;2023-05-03T04:26:31;95471.66;;;9.79;100.00
23363;BME280;11853;48.080;11.960;2023-05-03T04:28:57;95474.16;;;9.81;100.00
23363;BME280;11853;48.080;11.960;2023-05-03T04:31:23;95478.94;;;9.87;100.00
23363;BME280;11853;48.080;11.960;2023-05-03T04:33:49;95473.97;;;9.93;100.00
23363;BME280;11853;48.080;11.960;2023-05-03T04:36:15;95466.69;;;9.96;100.00
23363;BME280;11853;48.080;11.960;2023-05-03T04:38:41;95473.28;;;10.01;100.00
23363;BME280;11853;48.080;11.960;2023-05-03T04:41:08;95472.06;;;10.05;100.00
23363;BME280;11853;48.080;11.960;2023-05-03T04:43:34;95475.41;;;10.07;100.00
23363;BME280;11853;48.080;11.960;2023-05-03T04:46:01;95473.88;;;10.14;100.00
23363;BME280;11853;48.080;11.960;2023-05-03T04:48:28;95480.34;;;10.22;100.00
23363;BME280;11853;48.080;11.960;2023-05-03T04:50:54;95484.16;;;10.29;100.00
23363;BME280;11853;48.080;11.960;2023-05-03T04:53:20;95483.34;;;10.38;100.00
23363;BME280;11853;48.080;11.960;2023-05-03T04:55:45;95477.25;;;10.57;100.00
23363;BME280;11853;48.080;11.960;2023-05-03T04:58:12;95475.31;;;10.78;100.00
23363;BME280;11853;48.080;11.960;2023-05-03T05:00:40;95481.59;;;10.87;100.00
23363;BME280;11853;48.080;11.960;2023-05-03T05:03:06;95479.66;;;10.99;100.00
23363;BME280;11853;48.080;11.960;2023-05-03T05:05:32;95480.22;;;11.02;100.00
23363;BME280;11853;48.080;11.960;2023-05-03T05:07:58;95485.38;;;11.04;100.00
23363;BME280;11853;48.080;11.960;2023-05-03T05:10:23;95486.63;;;11.10;100.00
23363;BME280;11853;48.080;11.960;2023-05-03T05:12:49;95485.69;;;11.11;100.00
23363;BME280;11853;48.080;11.960;2023-05-03T05:15:15;95481.19;;;11.11;100.00
23363;BME280;11853;48.080;11.960;2023-05-03T05:17:41;95476.47;;;11.05;100.00
23363;BME280;11853;48.080;11.960;2023-05-03T05:20:07;95489.84;;;11.03;100.00
23363;BME280;11853;48.080;11.960;2023-05-03T05:22:39;95484.53;;;11.03;100.00
23363;BME280;11853;48.080;11.960;2023-05-03T05:25:06;95493.06;;;11.17;100.00
23363;BME280;11853;48.080;11.960;2023-05-03T05:27:35;95496.44;;;11.28;100.00
23363;BME280;11853;48.080;11.960;2023-05-03T05:30:00;95494.31;;;11.42;100.00
23363;BME280;11853;48.080;11.960;2023-05-03T05:32:26;95499.31;;;11.55;100.00
23363;BME280;11853;48.080;11.960;2023-05-03T05:34:52;95500.16;;;11.65;100.00
23363;BME280;11853;48.080;11.960;2023-05-03T05:37:23;95501.53;;;11.69;100.00
23363;BME280;11853;48.080;11.960;2023-05-03T05:39:49;95496.81;;;11.63;100.00
23363;BME280;11853;48.080;11.960;2023-05-03T05:42:15;95506.44;;;11.64;100.00
23363;BME280;11853;48.080;11.960;2023-05-03T05:44:41;95507.16;;;11.66;100.00
23363;BME280;11853;48.080;11.960;2023-05-03T05:47:08;95498.47;;;11.64;100.00
23363;BME280;11853;48.080;11.960;2023-05-03T05:49:35;95506.19;;;11.57;100.00
23363;BME280;11853;48.080;11.960;2023-05-03T05:52:00;95511.34;;;11.59;100.00
23363;BME280;11853;48.080;11.960;2023-05-03T05:54:26;95506.31;;;11.56;100.00
23363;BME280;11853;48.080;11.960;2023-05-03T05:56:52;95511.22;;;11.60;100.00
23363;BME280;11853;48.080;11.960;2023-05-03T05:59:18;95513.75;;;11.62;100.00
23363;BME280;11853;48.080;11.960;2023-05-03T06:01:44;95510.78;;;11.65;100.00
23363;BME280;11853;48.080;11.960;2023-05-03T06:04:12;95504.31;;;11.77;100.00
23363;BME280;11853;48.080;11.960;2023-05-03T06:06:38;95503.63;;;11.75;100.00
23363;BME280;11853;48.080;11.960;2023-05-03T06:09:04;95512.56;;;11.84;100.00
23363;BME280;11853;48.080;11.960;2023-05-03T06:11:30;95516.19;;;11.83;100.00
23363;BME280;11853;48.080;11.960;2023-05-03T06:13:56;95519.97;;;11.80;100.00
23363;BME280;11853;48.080;11.960;2023-05-03T06:16:23;95524.31;;;11.81;100.00
23363;BME280;11853;48.080;11.960;2023-05-03T06:18:49;95523.19;;;11.84;100.00
23363;BME280;11853;48.080;11.960;2023-05-03T06:21:15;95512.72;;;11.72;100.00
23363;BME280;11853;48.080;11.960;2023-05-03T06:23:41;95525.19;;;11.72;100.00
23363;BME280;11853;48.080;11.960;2023-05-03T06:26:07;95524.50;;;11.60;100.00
23363;BME280;11853;48.080;11.960;2023-05-03T06:28:34;95530.38;;;11.54;100.00
23363;BME280;11853;48.080;11.960;2023-05-03T06:31:00;95525.34;;;11.51;100.00
23363;BME280;11853;48.080;11.960;2023-05-03T06:33:26;95529.84;;;11.50;100.00
23363;BME280;11853;48.080;11.960;2023-05-03T06:35:52;95529.84;;;11.50;100.00
23363;BME280;11853;48.080;11.960;2023-05-03T06:38:18;95536.81;;;11.52;100.00
23363;BME280;11853;48.080;11.960;2023-05-03T06:40:45;95530.13;;;11.47;100.00
23363;BME280;11853;48.080;11.960;2023-05-03T06:43:10;95535.16;;;11.50;100.00
23363;BME280;11853;48.080;11.960;2023-05-03T06:45:38;95541.56;;;11.58;100.00
23363;BME280;11853;48.080;11.960;2023-05-03T06:48:04;95537.66;;;11.52;100.00
23363;BME280;11853;48.080;11.960;2023-05-03T06:50:30;95538.47;;;11.53;100.00
23363;BME280;11853;48.080;11.960;2023-05-03T06:52:56;95544.38;;;11.56;100.00
23363;BME280;11853;48.080;11.960;2023-05-03T06:55:22;95535.53;;;11.56;100.00
23363;BME280;11853;48.080;11.960;2023-05-03T06:57:47;95539.31;;;11.63;100.00
23363;BME280;11853;48.080;11.960;2023-05-03T07:00:14;95542.53;;;11.76;100.00
23363;BME280;11853;48.080;11.960;2023-05-03T07:02:40;95538.59;;;11.80;100.00
23363;BME280;11853;48.080;11.960;2023-05-03T07:05:06;95546.28;;;11.83;100.00
23363;BME280;11853;48.080;11.960;2023-05-03T07:07:33;95547.44;;;11.90;100.00
23363;BME280;11853;48.080;11.960;2023-05-03T07:09:58;95548.56;;;11.88;100.00
23363;BME280;11853;48.080;11.960;2023-05-03T07:12:24;95545.59;;;11.91;100.00
23363;BME280;11853;48.080;11.960;2023-05-03T07:14:53;95544.91;;;11.89;100.00
23363;BME280;11853;48.080;11.960;2023-05-03T07:17:19;95530.06;;;11.86;100.00
23363;BME280;11853;48.080;11.960;2023-05-03T07:19:46;95527.66;;;11.93;100.00
23363;BME280;11853;48.080;11.960;2023-05-03T07:22:13;95538.88;;;11.97;100.00
23363;BME280;11853;48.080;11.960;2023-05-03T07:24:39;95539.13;;;12.03;100.00
23363;BME280;11853;48.080;11.960;2023-05-03T07:27:04;95536.72;;;12.10;100.00
23363;BME280;11853;48.080;11.960;2023-05-03T07:29:31;95533.22;;;12.09;100.00
23363;BME280;11853;48.080;11.960;2023-05-03T07:31:57;95533.38;;;12.08;100.00
23363;BME280;11853;48.080;11.960;2023-05-03T07:34:23;95537.72;;;12.09;100.00
23363;BME280;11853;48.080;11.960;2023-05-03T07:36:49;95536.72;;;12.10;100.00
23363;BME280;11853;48.080;11.960;2023-05-03T07:39:14;95536.00;;;12.17;100.00
23363;BME280;11853;48.080;11.960;2023-05-03T07:41:41;95542.03;;;12.20;100.00
23363;BME280;11853;48.080;11.960;2023-05-03T07:44:07;95544.75;;;12.37;100.00
23363;BME280;11853;48.080;11.960;2023-05-03T07:46:33;95542.59;;;12.51;100.00
23363;BME280;11853;48.080;11.960;2023-05-03T07:49:02;95540.78;;;12.42;100.00
23363;BME280;11853;48.080;11.960;2023-05-03T07:51:28;95534.06;;;12.47;100.00
23363;BME280;11853;48.080;11.960;2023-05-03T07:53:56;95532.03;;;12.59;100.00
23363;BME280;11853;48.080;11.960;2023-05-03T07:56:22;95532.28;;;12.66;100.00
23363;BME280;11853;48.080;11.960;2023-05-03T07:58:48;95538.16;;;12.69;100.00
23363;BME280;11853;48.080;11.960;2023-05-03T08:01:14;95536.84;;;12.73;100.00
23363;BME280;11853;48.080;11.960;2023-05-03T08:03:40;95540.09;;;12.77;100.00
23363;BME280;11853;48.080;11.960;2023-05-03T08:06:05;95536.13;;;12.81;100.00
23363;BME280;11853;48.080;11.960;2023-05-03T08:08:31;95536.94;;;12.81;100.00
23363;BME280;11853;48.080;11.960;2023-05-03T08:10:58;95541.44;;;12.81;100.00
23363;BME280;11853;48.080;11.960;2023-05-03T08:13:24;95534.38;;;12.90;100.00
23363;BME280;11853;48.080;11.960;2023-05-03T08:15:49;95540.81;;;12.97;100.00
23363;BME280;11853;48.080;11.960;2023-05-03T08:18:15;95541.94;;;13.12;100.00
23363;BME280;11853;48.080;11.960;2023-05-03T08:20:41;95538.28;;;13.13;100.00
23363;BME280;11853;48.080;11.960;2023-05-03T08:23:08;95537.00;;;13.17;100.00
23363;BME280;11853;48.080;11.960;2023-05-03T08:25:33;95540.53;;;13.36;100.00
23363;BME280;11853;48.080;11.960;2023-05-03T08:28:01;95541.22;;;13.56;100.00
23363;BME280;11853;48.080;11.960;2023-05-03T08:30:27;95525.69;;;13.95;100.00
23363;BME280;11853;48.080;11.960;2023-05-03T08:32:53;95527.13;;;14.15;100.00
23363;BME280;11853;48.080;11.960;2023-05-03T08:35:19;95532.72;;;14.56;100.00
23363;BME280;11853;48.080;11.960;2023-05-03T08:37:44;95533.00;;;14.87;100.00
23363;BME280;11853;48.080;11.960;2023-05-03T08:40:11;95533.75;;;15.14;100.00
23363;BME280;11853;48.080;11.960;2023-05-03T08:42:42;95530.06;;;15.15;99.88
23363;BME280;11853;48.080;11.960;2023-05-03T08:45:09;95523.59;;;15.34;100.00
23363;BME280;11853;48.080;11.960;2023-05-03T08:47:37;95522.44;;;15.45;100.00
23363;BME280;11853;48.080;11.960;2023-05-03T08:50:05;95517.25;;;15.35;95.79
23363;BME280;11853;48.080;11.960;2023-05-03T08:52:33;95524.97;;;15.54;97.25
23363;BME280;11853;48.080;11.960;2023-05-03T08:54:59;95527.00;;;15.77;99.78
23363;BME280;11853;48.080;11.960;2023-05-03T08:57:26;95525.16;;;15.77;99.98
23363;BME280;11853;48.080;11.960;2023-05-03T08:59:53;95529.69;;;15.69;96.70
23363;BME280;11853;48.080;11.960;2023-05-03T09:02:22;95528.44;;;15.47;96.65
23363;BME280;11853;48.080;11.960;2023-05-03T09:04:48;95519.94;;;15.43;97.06
23363;BME280;11853;48.080;11.960;2023-05-03T09:07:14;95523.78;;;15.57;98.92
23363;BME280;11853;48.080;11.960;2023-05-03T09:09:41;95523.81;;;15.82;99.04
23363;BME280;11853;48.080;11.960;2023-05-03T09:12:07;95531.81;;;15.82;93.31
23363;BME280;11853;48.080;11.960;2023-05-03T09:14:44;95520.47;;;15.71;94.87
23363;BME280;11853;48.080;11.960;2023-05-03T09:17:17;95515.63;;;15.83;95.13
23363;BME280;11853;48.080;11.960;2023-05-03T09:19:52;95520.97;;;15.83;90.62
23363;BME280;11853;48.080;11.960;2023-05-03T09:22:19;95518.63;;;15.72;90.91
23363;BME280;11853;48.080;11.960;2023-05-03T09:24:53;95518.44;;;15.57;89.85
23363;BME280;11853;48.080;11.960;2023-05-03T09:27:19;95518.97;;;15.69;91.85
23363;BME280;11853;48.080;11.960;2023-05-03T09:29:46;95520.44;;;15.55;91.78
23363;BME280;11853;48.080;11.960;2023-05-03T09:32:12;95517.91;;;15.29;91.82
23363;BME280;11853;48.080;11.960;2023-05-03T09:34:38;95524.41;;;15.26;94.80
23363;BME280;11853;48.080;11.960;2023-05-03T09:37:04;95524.09;;;15.29;92.22
23363;BME280;11853;48.080;11.960;2023-05-03T09:39:29;95525.59;;;15.32;90.36
23363;BME280;11853;48.080;11.960;2023-05-03T09:41:55;95529.06;;;15.08;90.45
23363;BME280;11853;48.080;11.960;2023-05-03T09:47:07;95521.13;;;14.74;91.94
23363;BME280;11853;48.080;11.960;2023-05-03T09:49:33;95520.38;;;14.55;94.25
23363;BME280;11853;48.080;11.960;2023-05-03T09:52:02;95525.56;;;14.57;95.43
23363;BME280;11853;48.080;11.960;2023-05-03T09:54:29;95517.38;;;14.58;97.42
23363;BME280;11853;48.080;11.960;2023-05-03T09:57:00;95519.66;;;14.79;95.52
23363;BME280;11853;48.080;11.960;2023-05-03T09:59:27;95520.00;;;14.93;96.07
23363;BME280;11853;48.080;11.960;2023-05-03T10:01:55;95520.84;;;15.01;93.72
23363;BME280;11853;48.080;11.960;2023-05-03T10:04:25;95521.19;;;14.98;94.11
23363;BME280;11853;48.080;11.960;2023-05-03T10:06:56;95517.03;;;15.04;92.22
23363;BME280;11853;48.080;11.960;2023-05-03T10:09:27;95513.19;;;15.06;90.35
23363;BME280;11853;48.080;11.960;2023-05-03T10:11:58;95512.19;;;15.16;90.47
23363;BME280;11853;48.080;11.960;2023-05-03T10:14:24;95504.69;;;15.27;91.48
23363;BME280;11853;48.080;11.960;2023-05-03T10:16:59;95498.53;;;15.35;92.07
23363;BME280;11853;48.080;11.960;2023-05-03T10:19:40;95504.88;;;15.59;87.95
23363;BME280;11853;48.080;11.960;2023-05-03T10:22:10;95503.91;;;15.51;86.08
23363;BME280;11853;48.080;11.960;2023-05-03T10:25:06;95493.19;;;15.51;87.10
23363;BME280;11853;48.080;11.960;2023-05-03T10:27:35;95495.22;;;15.74;86.05
23363;BME280;11853;48.080;11.960;2023-05-03T10:30:01;95491.88;;;15.80;85.52
23363;BME280;11853;48.080;11.960;2023-05-03T10:32:36;95496.88;;;15.99;80.88
23363;BME280;11853;48.080;11.960;2023-05-03T10:35:11;95492.84;;;16.04;84.30
23363;BME280;11853;48.080;11.960;2023-05-03T10:37:39;95499.38;;;15.93;84.57
23363;BME280;11853;48.080;11.960;2023-05-03T10:40:13;95494.50;;;15.96;81.53
23363;BME280;11853;48.080;11.960;2023-05-03T10:42:44;95484.13;;;16.02;78.85
23363;BME280;11853;48.080;11.960;2023-05-03T10:45:25;95489.47;;;16.10;82.09
23363;BME280;11853;48.080;11.960;2023-05-03T10:50:35;95483.84;;;16.44;81.35
23363;BME280;11853;48.080;11.960;2023-05-03T10:53:01;95486.13;;;16.63;81.95
23363;BME280;11853;48.080;11.960;2023-05-03T10:55:27;95477.53;;;16.76;80.43
23363;BME280;11853;48.080;11.960;2023-05-03T10:57:54;95483.41;;;16.72;75.09
23363;BME280;11853;48.080;11.960;2023-05-03T11:03:18;95476.88;;;16.35;77.13
23363;BME280;11853;48.080;11.960;2023-05-03T11:05:50;95477.59;;;16.04;78.41
23363;BME280;11853;48.080;11.960;2023-05-03T11:08:22;95477.59;;;16.04;82.24
23363;BME280;11853;48.080;11.960;2023-05-03T11:10:56;95484.34;;;16.48;79.29
23363;BME280;11853;48.080;11.960;2023-05-03T11:13:26;95480.78;;;16.55;78.87
23363;BME280;11853;48.080;11.960;2023-05-03T11:15:55;95468.50;;;16.77;82.21
23363;BME280;11853;48.080;11.960;2023-05-03T11:18:23;95472.94;;;16.93;79.86
23363;BME280;11853;48.080;11.960;2023-05-03T11:20:51;95474.44;;;16.96;79.41
23363;BME280;11853;48.080;11.960;2023-05-03T11:23:18;95477.47;;;16.93;77.97
23363;BME280;11853;48.080;11.960;2023-05-03T11:25:43;95476.50;;;16.85;77.02
23363;BME280;11853;48.080;11.960;2023-05-03T11:28:09;95470.47;;;16.83;77.74
23363;BME280;11853;48.080;11.960;2023-05-03T11:30:35;95471.63;;;16.89;77.82
23363;BME280;11853;48.080;11.960;2023-05-03T11:33:02;95465.31;;;17.05;78.07
23363;BME280;11853;48.080;11.960;2023-05-03T11:35:29;95461.34;;;17.24;79.56
23363;BME280;11853;48.080;11.960;2023-05-03T11:37:55;95470.00;;;17.34;78.01
23363;BME280;11853;48.080;11.960;2023-05-03T11:40:21;95465.63;;;17.33;77.14
23363;BME280;11853;48.080;11.960;2023-05-03T11:42:59;95465.81;;;17.31;71.27
23363;BME280;11853;48.080;11.960;2023-05-03T11:45:26;95460.22;;;17.18;72.30
23363;BME280;11853;48.080;11.960;2023-05-03T11:47:54;95469.38;;;17.01;72.34
23363;BME280;11853;48.080;11.960;2023-05-03T11:50:45;95456.94;;;16.77;70.35
23363;BME280;11853;48.080;11.960;2023-05-03T11:53:14;95452.13;;;16.64;70.76
23363;BME280;11853;48.080;11.960;2023-05-03T11:55:42;95451.41;;;16.70;72.83
23363;BME280;11853;48.080;11.960;2023-05-03T11:58:12;95449.75;;;16.69;71.37
23363;BME280;11853;48.080;11.960;2023-05-03T12:00:38;95448.72;;;16.78;72.96
23363;BME280;11853;48.080;11.960;2023-05-03T12:03:05;95452.94;;;17.04;73.20
23363;BME280;11853;48.080;11.960;2023-05-03T12:05:33;95448.19;;;17.14;74.15
23363;BME280;11853;48.080;11.960;2023-05-03T12:07:58;95446.09;;;17.24;75.51
23363;BME280;11853;48.080;11.960;2023-05-03T12:10:30;95458.06;;;17.37;72.90
23363;BME280;11853;48.080;11.960;2023-05-03T12:12:57;95457.38;;;17.43;70.01
23363;BME280;11853;48.080;11.960;2023-05-03T12:15:31;95449.00;;;17.38;71.36
23363;BME280;11853;48.080;11.960;2023-05-03T12:17:58;95457.47;;;17.26;71.17
23363;BME280;11853;48.080;11.960;2023-05-03T12:20:25;95448.19;;;17.14;71.85
23363;BME280;11853;48.080;11.960;2023-05-03T12:23:00;95446.13;;;17.16;72.01
23363;BME280;11853;48.080;11.960;2023-05-03T12:25:28;95447.47;;;17.20;73.71
23363;BME280;11853;48.080;11.960;2023-05-03T12:27:56;95448.19;;;17.37;75.14
23363;BME280;11853;48.080;11.960;2023-05-03T12:30:25;95435.16;;;17.49;73.58
23363;BME280;11853;48.080;11.960;2023-05-03T12:32:51;95441.94;;;17.60;73.59
23363;BME280;11853;48.080;11.960;2023-05-03T12:35:18;95440.75;;;17.62;73.34
23363;BME280;11853;48.080;11.960;2023-05-03T12:37:48;95434.47;;;17.70;69.35
23363;BME280;11853;48.080;11.960;2023-05-03T12:40:16;95427.38;;;17.54;68.24
23363;BME280;11853;48.080;11.960;2023-05-03T12:42:43;95437.66;;;17.50;70.60
23363;BME280;11853;48.080;11.960;2023-05-03T12:45:10;95433.56;;;17.77;72.01
23363;BME280;11853;48.080;11.960;2023-05-03T12:47:35;95437.97;;;17.70;70.14
23363;BME280;11853;48.080;11.960;2023-05-03T12:50:02;95431.69;;;17.63;67.76
23363;BME280;11853;48.080;11.960;2023-05-03T12:52:28;95421.72;;;17.34;69.71
23363;BME280;11853;48.080;11.960;2023-05-03T12:54:56;95430.78;;;17.10;70.56
23363;BME280;11853;48.080;11.960;2023-05-03T12:57:22;95429.31;;;16.99;69.89
23363;BME280;11853;48.080;11.960;2023-05-03T12:59:48;95430.81;;;16.79;71.64
23363;BME280;11853;48.080;11.960;2023-05-03T13:02:19;95420.50;;;16.59;76.07